Time;durP1;ratioP1;P1;durP2;ratioP2;P2;SDS_P1;SDS_P2;PMS_P1;PMS_P2;Temp;Humidity;BMP_temperature;BMP_pressure;BME280_temperature;BME280_humidity;BME280_pressure;Samples;Min_cycle;Max_cycle;Signal;HPM_P1;HPM_P2
2020/12/05 00:01:12;;;;;;;54.60;34.13;;;4.80;97.80;;;;;;6294417;28;20079;-76
2020/12/05 00:04:14;;;;;;;53.63;32.42;;;4.80;98.20;;;;;;6296523;28;20131;-76
2020/12/05 00:07:15;;;;;;;65.70;36.30;;;4.80;98.50;;;;;;6291707;28;20119;-76
2020/12/05 00:10:17;;;;;;;61.55;37.17;;;4.80;98.70;;;;;;6277527;28;20077;-77
2020/12/05 00:13:19;;;;;;;60.58;38.97;;;4.80;99.00;;;;;;6275587;28;20049;-76
2020/12/05 00:16:21;;;;;;;66.30;38.53;;;4.80;99.10;;;;;;6274821;28;20048;-77
2020/12/05 00:19:22;;;;;;;59.58;37.33;;;4.80;99.30;;;;;;6275537;28;20155;-77
2020/12/05 00:22:23;;;;;;;65.63;39.97;;;4.80;99.50;;;;;;6275324;28;20127;-78
2020/12/05 00:25:25;;;;;;;67.10;37.28;;;4.80;99.70;;;;;;6274052;28;20120;-77
2020/12/05 00:28:27;;;;;;;65.03;41.30;;;4.70;99.90;;;;;;6275552;28;20049;-77
2020/12/05 00:31:28;;;;;;;69.63;42.15;;;4.70;99.90;;;;;;6278643;28;20563;-77
2020/12/05 00:34:29;;;;;;;81.35;40.13;;;4.80;99.90;;;;;;6278991;28;20056;-78
2020/12/05 00:37:31;;;;;;;79.88;45.30;;;4.70;99.90;;;;;;6278765;28;20128;-78
2020/12/05 00:40:33;;;;;;;79.60;44.22;;;4.70;99.90;;;;;;6279302;28;20053;-77
2020/12/05 00:43:35;;;;;;;74.45;40.45;;;4.70;99.90;;;;;;6278270;28;20044;-77
2020/12/05 00:46:40;;;;;;;84.85;44.63;;;4.80;99.90;;;;;;6280107;28;20076;-78
2020/12/05 00:49:41;;;;;;;85.55;45.08;;;4.80;99.90;;;;;;6280963;28;20072;-79
2020/12/05 00:52:43;;;;;;;92.53;48.03;;;;;;;;;;6280365;28;20120;-77
2020/12/05 00:55:46;;;;;;;85.10;44.92;;;4.80;99.90;;;;;;6280557;28;20401;-78
2020/12/05 00:58:47;;;;;;;91.72;50.67;;;4.80;99.90;;;;;;6282300;28;20072;-77
2020/12/05 01:01:53;;;;;;;91.78;48.85;;;4.80;99.90;;;;;;6283198;28;20049;-78
2020/12/05 01:04:54;;;;;;;97.82;48.40;;;4.80;99.90;;;;;;6281821;28;20522;-79
2020/12/05 01:07:56;;;;;;;98.68;48.20;;;4.80;99.90;;;;;;6280963;28;20045;-77
2020/12/05 01:10:58;;;;;;;101.32;50.88;;;4.80;99.90;;;;;;6276861;28;20098;-77
2020/12/05 01:13:59;;;;;;;106.07;50.13;;;4.80;99.90;;;;;;6276842;28;20066;-76
2020/12/05 01:17:00;;;;;;;99.32;50.80;;;4.80;99.90;;;;;;6274694;28;20045;-77
2020/12/05 01:20:02;;;;;;;96.68;45.58;;;4.80;99.90;;;;;;6275784;28;20083;-78
2020/12/05 01:23:04;;;;;;;96.75;51.88;;;4.70;99.90;;;;;;6277199;28;20056;-77
2020/12/05 01:26:06;;;;;;;116.70;53.17;;;4.70;99.90;;;;;;6284442;28;20099;-77
2020/12/05 01:29:08;;;;;;;120.10;58.28;;;4.70;99.90;;;;;;6287228;28;20126;-78
2020/12/05 01:32:09;;;;;;;118.95;53.30;;;4.70;99.90;;;;;;6278600;28;20045;-77
2020/12/05 01:35:11;;;;;;;113.38;52.75;;;4.70;99.90;;;;;;6277329;28;20044;-78
2020/12/05 01:38:12;;;;;;;113.82;52.63;;;4.70;99.90;;;;;;6277508;28;20128;-77
2020/12/05 01:41:16;;;;;;;102.68;49.25;;;4.70;99.90;;;;;;6276007;28;20124;-77
2020/12/05 01:44:17;;;;;;;99.70;47.58;;;4.70;99.90;;;;;;6277303;28;20158;-78
2020/12/05 01:47:20;;;;;;;105.53;48.75;;;4.70;99.90;;;;;;6275755;28;20037;-77
2020/12/05 01:50:22;;;;;;;100.68;48.75;;;4.60;99.90;;;;;;6273646;28;20055;-77
2020/12/05 01:53:23;;;;;;;104.55;47.75;;;4.60;99.90;;;;;;6274795;28;20045;-77
2020/12/05 01:56:27;;;;;;;92.80;46.45;;;4.60;99.90;;;;;;6272309;28;20041;-77
2020/12/05 01:59:29;;;;;;;105.22;47.33;;;4.60;99.90;;;;;;6273569;28;20045;-77
2020/12/05 02:02:30;;;;;;;103.35;48.63;;;4.60;99.90;;;;;;6273265;28;20061;-77
2020/12/05 02:05:43;;;;;;;108.07;49.22;;;4.80;99.90;;;;;;6273854;28;20045;-77
2020/12/05 02:08:54;;;;;;;102.45;48.92;;;4.80;99.90;;;;;;6276121;28;20152;-77
2020/12/05 02:12:02;;;;;;;99.40;45.45;;;4.60;99.90;;;;;;6275782;28;20464;-77
2020/12/05 02:15:06;;;;;;;;;;;4.60;99.90;;;;;;6277053;28;20128;-77
2020/12/05 02:18:10;;;;;;;88.43;43.50;;;4.60;99.90;;;;;;6278081;28;19928;-78
2020/12/05 02:21:12;;;;;;;113.32;47.28;;;4.60;99.90;;;;;;6276098;28;20135;-78
2020/12/05 02:24:14;;;;;;;87.50;44.38;;;4.60;99.90;;;;;;6275959;28;20480;-77
2020/12/05 02:27:16;;;;;;;108.80;49.97;;;4.60;99.90;;;;;;6275456;28;20389;-77
2020/12/05 02:30:17;;;;;;;95.38;44.50;;;4.60;99.90;;;;;;6276929;28;20128;-78
2020/12/05 02:33:19;;;;;;;105.50;45.75;;;4.60;99.90;;;;;;6276149;28;20461;-78
2020/12/05 02:36:20;;;;;;;92.50;40.08;;;4.60;99.90;;;;;;6272425;28;20195;-77
2020/12/05 02:39:23;;;;;;;83.47;38.63;;;4.60;99.90;;;;;;6273125;28;20059;-77
2020/12/05 02:42:24;;;;;;;95.97;42.22;;;4.60;99.90;;;;;;6273675;28;20049;-78
2020/12/05 02:45:25;;;;;;;101.47;41.08;;;4.60;99.90;;;;;;6274429;28;20053;-78
2020/12/05 02:48:27;;;;;;;87.10;37.33;;;4.60;99.90;;;;;;6275094;28;20506;-78
2020/12/05 02:51:28;;;;;;;88.07;37.80;;;4.70;99.90;;;;;;6277506;28;20171;-77
2020/12/05 02:54:31;;;;;;;76.80;31.45;;;4.70;99.90;;;;;;6274818;28;20045;-77
2020/12/05 02:57:33;;;;;;;57.95;26.63;;;4.60;99.90;;;;;;6273445;28;20121;-77
2020/12/05 03:00:34;;;;;;;40.55;21.15;;;4.60;99.90;;;;;;6276338;28;20041;-78
2020/12/05 03:03:35;;;;;;;34.15;15.40;;;4.60;99.90;;;;;;6274525;28;20094;-77
2020/12/05 03:06:37;;;;;;;28.65;12.80;;;4.60;99.90;;;;;;6273537;28;20128;-77
2020/12/05 03:09:39;;;;;;;22.95;12.73;;;4.50;99.90;;;;;;6273549;28;20064;-77
2020/12/05 03:12:40;;;;;;;18.13;8.20;;;4.50;99.90;;;;;;6272826;28;20178;-78
2020/12/05 03:15:41;;;;;;;10.77;6.10;;;4.40;99.90;;;;;;6272346;28;20056;-78
2020/12/05 03:18:43;;;;;;;13.30;5.13;;;4.40;99.90;;;;;;6271041;28;20477;-77
2020/12/05 03:21:44;;;;;;;8.90;4.55;;;4.40;99.90;;;;;;6271959;28;20132;-76
2020/12/05 03:24:46;;;;;;;7.33;5.30;;;4.40;99.90;;;;;;6271438;28;20057;-77
2020/12/05 03:27:47;;;;;;;6.30;5.00;;;4.40;99.90;;;;;;6271496;28;20053;-77
2020/12/05 03:30:49;;;;;;;8.07;4.75;;;4.40;99.90;;;;;;6272403;28;20112;-78
2020/12/05 03:33:50;;;;;;;9.10;4.47;;;4.30;99.90;;;;;;6273514;28;20045;-77
2020/12/05 03:36:51;;;;;;;9.25;4.65;;;4.30;99.90;;;;;;6271345;28;20057;-77
2020/12/05 03:39:54;;;;;;;5.25;4.22;;;4.30;99.90;;;;;;6271551;28;20056;-77
2020/12/05 03:42:55;;;;;;;8.02;4.50;;;4.30;99.90;;;;;;6271639;28;20094;-77
2020/12/05 03:45:56;;;;;;;6.93;4.53;;;4.30;99.90;;;;;;6271166;28;20238;-77
2020/12/05 03:48:59;;;;;;;8.88;4.90;;;4.30;99.90;;;;;;6270874;28;20044;-77
2020/12/05 03:52:01;;;;;;;8.95;4.45;;;4.30;99.90;;;;;;6271047;28;20526;-77
2020/12/05 03:55:03;;;;;;;6.65;3.90;;;4.30;99.90;;;;;;6270866;28;20041;-77
2020/12/05 03:58:04;;;;;;;6.93;4.13;;;4.20;99.90;;;;;;6270508;28;20183;-77
2020/12/05 04:01:06;;;;;;;7.28;4.40;;;4.30;99.90;;;;;;6270539;28;20525;-77
2020/12/05 04:04:08;;;;;;;7.28;5.00;;;4.20;99.90;;;;;;6272357;28;20056;-77
2020/12/05 04:07:09;;;;;;;5.13;3.58;;;4.20;99.90;;;;;;6274862;28;20048;-77
2020/12/05 04:10:11;;;;;;;5.22;4.18;;;4.20;99.90;;;;;;6275598;28;20190;-77
2020/12/05 04:13:12;;;;;;;4.97;3.90;;;4.20;99.90;;;;;;6274210;28;20049;-76
2020/12/05 04:16:14;;;;;;;27.25;17.40;;;4.20;99.90;;;;;;6274595;28;20091;-77
2020/12/05 04:19:15;;;;;;;4.50;2.90;;;4.20;99.90;;;;;;6274910;28;20086;-76
2020/12/05 04:22:16;;;;;;;4.70;2.88;;;4.20;99.90;;;;;;6274990;28;20534;-77
2020/12/05 04:25:19;;;;;;;3.58;2.83;;;4.10;99.90;;;;;;6275216;28;20171;-77
2020/12/05 04:28:20;;;;;;;5.45;3.35;;;4.10;99.90;;;;;;6274536;28;20093;-76
2020/12/05 04:31:21;;;;;;;5.32;2.97;;;4.10;99.90;;;;;;6275167;28;20053;-77
2020/12/05 04:34:23;;;;;;;4.28;3.67;;;4.10;99.90;;;;;;6274889;28;20136;-77
2020/12/05 04:37:24;;;;;;;5.63;4.93;;;4.10;99.90;;;;;;6274771;28;20410;-77
2020/12/05 04:40:27;;;;;;;4.45;2.75;;;4.10;99.90;;;;;;6274667;28;20049;-77
2020/12/05 04:43:28;;;;;;;3.50;2.30;;;4.10;99.90;;;;;;6287919;28;20065;-76
2020/12/05 04:46:31;;;;;;;3.80;3.33;;;4.00;99.90;;;;;;6280008;28;20053;-77
2020/12/05 04:49:34;;;;;;;2.92;2.22;;;4.00;99.90;;;;;;6274807;28;20048;-77
2020/12/05 04:52:47;;;;;;;2.87;2.10;;;4.00;99.90;;;;;;6274545;28;20051;-76
2020/12/05 04:55:52;;;;;;;3.17;2.60;;;4.00;99.90;;;;;;6273839;28;20129;-77
2020/12/05 04:59:02;;;;;;;2.43;2.00;;;4.00;99.90;;;;;;6273858;28;20049;-77
2020/12/05 05:02:10;;;;;;;2.53;1.70;;;4.00;99.90;;;;;;6273753;28;20045;-76
2020/12/05 05:05:13;;;;;;;2.95;2.25;;;4.00;99.90;;;;;;6273226;28;20049;-77
2020/12/05 05:08:15;;;;;;;2.28;1.75;;;4.00;99.90;;;;;;6272871;28;20055;-77
2020/12/05 05:11:18;;;;;;;2.88;1.92;;;4.00;99.90;;;;;;6273239;28;20049;-77
2020/12/05 05:14:20;;;;;;;1.77;1.40;;;4.00;99.90;;;;;;6273268;28;20049;-77
2020/12/05 05:17:21;;;;;;;3.97;2.33;;;4.00;99.90;;;;;;6272991;28;20122;-77
2020/12/05 05:20:23;;;;;;;3.60;1.85;;;4.10;99.90;;;;;;6273063;28;20053;-77
2020/12/05 05:23:24;;;;;;;3.30;2.53;;;4.10;99.90;;;;;;6272780;28;20122;-77
2020/12/05 05:26:26;;;;;;;2.33;1.50;;;4.10;99.90;;;;;;6272815;28;20131;-77
2020/12/05 05:29:32;;;;;;;3.08;2.03;;;4.10;99.90;;;;;;6272721;28;20182;-76
2020/12/05 05:32:42;;;;;;;3.63;2.22;;;4.10;99.90;;;;;;6272923;28;20056;-76
2020/12/05 05:35:43;;;;;;;2.30;2.05;;;4.10;99.90;;;;;;6272921;28;20049;-77
2020/12/05 05:38:55;;;;;;;3.15;2.20;;;4.20;99.90;;;;;;6271955;28;20132;-77
2020/12/05 05:41:57;;;;;;;6.35;3.10;;;4.20;99.90;;;;;;6273641;28;20090;-77
2020/12/05 05:45:17;;;;;;;8.80;2.72;;;4.20;99.90;;;;;;6272190;28;20056;-76
2020/12/05 05:48:19;;;;;;;2.50;2.20;;;4.20;99.90;;;;;;6272415;28;20605;-77
2020/12/05 05:51:39;;;;;;;4.10;3.70;;;4.10;99.90;;;;;;6272687;28;20098;-77
2020/12/05 05:54:40;;;;;;;465.17;259.42;;;4.10;99.90;;;;;;6271615;28;20501;-76
2020/12/05 05:57:43;;;;;;;28.10;21.70;;;4.10;99.90;;;;;;6251606;28;20152;-77
2020/12/05 06:00:46;;;;;;;5.25;3.90;;;4.10;99.90;;;;;;6249241;28;20108;-77
2020/12/05 06:03:51;;;;;;;18.83;16.83;;;4.10;99.90;;;;;;6248490;28;20041;-77
2020/12/05 06:06:53;;;;;;;6.63;4.40;;;4.10;99.90;;;;;;6249927;28;20045;-77
2020/12/05 06:09:54;;;;;;;4.80;2.37;;;4.10;99.90;;;;;;6249823;28;20056;-77
2020/12/05 06:12:58;;;;;;;3.60;2.55;;;4.10;99.90;;;;;;6250975;28;20167;-76
2020/12/05 06:16:01;;;;;;;3.38;2.47;;;4.10;99.90;;;;;;6248813;28;20160;-77
2020/12/05 06:19:02;;;;;;;5.57;2.17;;;4.10;99.90;;;;;;6247659;28;20099;-77
2020/12/05 06:22:04;;;;;;;6.57;2.92;;;4.10;99.90;;;;;;6247581;28;20463;-77
2020/12/05 06:25:10;;;;;;;6.90;3.20;;;4.10;99.90;;;;;;6247863;28;20057;-77
2020/12/05 06:28:13;;;;;;;7.37;6.67;;;4.10;99.90;;;;;;6248447;28;20137;-77
2020/12/05 06:31:15;;;;;;;7.05;5.45;;;4.00;99.90;;;;;;6252197;28;20492;-78
2020/12/05 06:34:42;;;;;;;5.03;3.90;;;4.00;99.90;;;;;;6251283;28;20050;-78
2020/12/05 06:37:43;;;;;;;4.90;3.33;;;3.90;99.90;;;;;;6251541;28;20058;-77
2020/12/05 06:40:44;;;;;;;5.30;2.57;;;3.90;99.90;;;;;;6250676;28;20056;-77
2020/12/05 06:44:08;;;;;;;4.90;3.17;;;3.80;99.90;;;;;;6251163;28;20050;-77
2020/12/05 06:47:21;;;;;;;4.33;3.73;;;3.70;99.90;;;;;;6250089;28;20045;-77
2020/12/05 06:50:32;;;;;;;5.03;3.20;;;3.50;99.90;;;;;;6251589;28;20540;-77
2020/12/05 06:53:34;;;;;;;6.20;4.77;;;3.50;99.90;;;;;;6249453;28;20140;-77
2020/12/05 06:56:35;;;;;;;6.50;3.60;;;3.40;99.90;;;;;;6253342;28;20523;-78
2020/12/05 06:59:37;;;;;;;3.63;3.20;;;3.30;99.90;;;;;;6252407;28;20184;-77
2020/12/05 07:02:39;;;;;;;7.30;3.73;;;3.30;99.90;;;;;;6250118;28;20184;-78
2020/12/05 07:05:43;;;;;;;4.73;3.70;;;;;;;;;;6258819;28;20135;-77
2020/12/05 07:08:51;;;;;;;4.77;3.80;;;3.10;99.90;;;;;;6274600;28;20041;-77
2020/12/05 07:12:17;;;;;;;7.13;3.50;;;3.00;99.90;;;;;;6271228;28;20052;-77
2020/12/05 07:15:25;;;;;;;4.83;3.80;;;2.90;99.90;;;;;;6271669;28;20082;-77
2020/12/05 07:18:28;;;;;;;5.63;4.32;;;2.80;99.90;;;;;;6272616;28;20049;-77
2020/12/05 07:21:30;;;;;;;9.97;5.30;;;2.70;99.90;;;;;;6267296;28;20128;-77
2020/12/05 07:24:31;;;;;;;9.13;6.63;;;2.70;99.90;;;;;;6246430;28;20049;-77
2020/12/05 07:27:33;;;;;;;12.70;7.67;;;2.60;99.90;;;;;;6246951;28;20180;-76
2020/12/05 07:30:35;;;;;;;12.87;7.93;;;2.60;99.90;;;;;;6246604;28;20060;-77
2020/12/05 07:33:38;;;;;;;11.90;7.43;;;2.60;99.90;;;;;;6246993;28;20064;-77
2020/12/05 07:36:40;;;;;;;14.60;7.30;;;2.70;99.90;;;;;;6246966;28;20129;-77
2020/12/05 07:39:43;;;;;;;13.53;5.90;;;2.80;99.90;;;;;;6264918;28;20132;-77
2020/12/05 07:42:45;;;;;;;9.23;5.07;;;2.80;99.90;;;;;;6276629;28;20578;-77
2020/12/05 07:45:48;;;;;;;12.33;6.50;;;2.80;99.90;;;;;;6278778;28;20073;-77
2020/12/05 07:48:49;;;;;;;10.57;5.30;;;2.90;99.90;;;;;;6278918;28;20403;-77
2020/12/05 07:51:51;;;;;;;9.33;5.17;;;2.90;99.90;;;;;;6277071;28;20308;-77
2020/12/05 07:54:55;;;;;;;12.30;6.57;;;3.00;99.90;;;;;;6278137;28;20045;-77
2020/12/05 07:57:57;;;;;;;10.97;5.73;;;3.10;99.90;;;;;;6278236;28;20075;-76
2020/12/05 08:00:59;;;;;;;18.87;8.90;;;3.10;99.90;;;;;;6280056;28;20095;-77
2020/12/05 08:04:26;;;;;;;12.43;6.90;;;3.10;99.90;;;;;;6282325;28;20136;-77
2020/12/05 08:07:37;;;;;;;10.47;5.90;;;3.20;99.90;;;;;;6282917;28;20045;-77
2020/12/05 08:10:38;;;;;;;13.23;8.30;;;3.20;99.90;;;;;;6281565;28;20053;-77
2020/12/05 08:13:40;;;;;;;14.60;7.73;;;3.20;99.90;;;;;;6279832;28;20053;-77
2020/12/05 08:16:44;;;;;;;11.97;6.67;;;3.20;99.90;;;;;;6278775;28;20049;-77
2020/12/05 08:19:46;;;;;;;9.67;5.93;;;3.30;99.90;;;;;;6282053;28;20072;-77
2020/12/05 08:22:47;;;;;;;13.13;7.37;;;3.40;99.90;;;;;;6279196;28;20052;-77
2020/12/05 08:25:49;;;;;;;13.10;9.00;;;3.40;99.90;;;;;;6279932;28;20063;-77
2020/12/05 08:28:50;;;;;;;16.07;7.90;;;3.60;99.90;;;;;;6280189;28;20060;-78
2020/12/05 08:31:53;;;;;;;13.23;8.13;;;3.70;99.90;;;;;;6279915;28;20455;-77
2020/12/05 08:38:01;;;;;;;19.03;7.80;;;3.80;99.90;;;;;;6246034;28;20548;-76
2020/12/05 08:41:04;;;;;;;13.53;7.70;;;3.80;99.90;;;;;;6248622;28;20049;-76
2020/12/05 08:44:10;;;;;;;12.25;7.78;;;3.80;99.90;;;;;;6248513;28;20053;-76
2020/12/05 08:47:12;;;;;;;11.43;8.10;;;3.80;99.90;;;;;;6246917;28;20525;-77
2020/12/05 08:50:23;;;;;;;13.40;7.37;;;3.90;99.90;;;;;;6248059;28;20049;-76
2020/12/05 08:53:24;;;;;;;12.07;6.67;;;3.90;99.90;;;;;;6247848;28;20056;-76
2020/12/05 08:56:26;;;;;;;12.47;7.40;;;3.80;99.90;;;;;;6247817;28;20053;-77
2020/12/05 08:59:27;;;;;;;18.27;8.30;;;3.90;99.90;;;;;;6247635;28;20403;-76
2020/12/05 09:02:36;;;;;;;15.27;8.97;;;3.90;99.90;;;;;;6247981;28;20049;-76
2020/12/05 09:05:45;;;;;;;13.30;7.27;;;4.00;99.90;;;;;;6246941;28;20057;-76
2020/12/05 09:08:46;;;;;;;11.67;8.23;;;3.90;99.90;;;;;;6247528;28;20049;-77
2020/12/05 09:11:48;;;;;;;20.10;9.40;;;4.00;99.90;;;;;;6247715;28;20136;-76
2020/12/05 09:14:50;;;;;;;23.17;12.77;;;4.20;99.90;;;;;;6225771;28;20054;-77
2020/12/05 09:17:56;;;;;;;22.35;11.45;;;4.50;99.90;;;;;;6223101;28;20756;-76
2020/12/05 09:20:58;;;;;;;28.63;16.90;;;4.60;99.90;;;;;;6188972;28;20503;-76
2020/12/05 09:23:59;;;;;;;30.30;14.93;;;4.80;99.90;;;;;;6223340;28;20132;-77
2020/12/05 09:27:02;;;;;;;27.70;14.85;;;4.80;99.90;;;;;;6210235;28;20411;-77
2020/12/05 09:30:05;;;;;;;28.45;13.90;;;4.90;99.90;;;;;;6215908;28;20069;-76
2020/12/05 09:33:11;;;;;;;23.80;15.32;;;5.30;99.90;;;;;;6211597;28;20041;-76
2020/12/05 09:36:13;;;;;;;16.15;11.20;;;5.70;99.90;;;;;;6212983;28;20169;-76
2020/12/05 09:39:14;;;;;;;13.35;10.85;;;5.60;99.90;;;;;;6212108;28;20197;-76
2020/12/05 09:42:22;;;;;;;13.00;9.77;;;5.80;99.90;;;;;;6216400;28;20116;-76
2020/12/05 09:45:23;;;;;;;20.98;12.80;;;5.80;99.90;;;;;;6210749;28;20055;-76
2020/12/05 09:48:26;;;;;;;15.95;11.90;;;5.90;99.90;;;;;;6209676;28;20053;-77
2020/12/05 09:51:28;;;;;;;10.57;7.82;;;5.80;99.90;;;;;;6210569;28;20125;-77
2020/12/05 09:54:29;;;;;;;11.77;9.07;;;5.80;99.90;;;;;;6213098;28;20392;-74
2020/12/05 09:57:31;;;;;;;12.07;8.82;;;5.60;99.90;;;;;;6213345;28;20046;-76
2020/12/05 10:00:32;;;;;;;11.00;8.75;;;5.60;99.90;;;;;;6218459;28;20125;-76
2020/12/05 10:03:34;;;;;;;15.15;9.23;;;5.40;99.90;;;;;;6214904;28;20089;-76
2020/12/05 10:06:35;;;;;;;13.52;9.25;;;5.40;99.90;;;;;;6220510;28;20054;-77
2020/12/05 10:09:37;;;;;;;14.60;8.68;;;5.20;99.90;;;;;;6209130;28;20053;-76
2020/12/05 10:12:44;;;;;;;14.32;9.60;;;5.10;99.90;;;;;;6216011;28;20450;-77
2020/12/05 10:15:45;;;;;;;15.95;9.93;;;5.20;99.90;;;;;;6203622;28;20062;-76
2020/12/05 10:18:47;;;;;;;14.45;10.05;;;5.20;99.90;;;;;;6208784;28;20088;-76
2020/12/05 10:21:49;;;;;;;12.50;9.68;;;5.20;99.90;;;;;;6209954;28;20565;-76
2020/12/05 10:24:51;;;;;;;17.48;10.55;;;5.20;99.90;;;;;;6212954;28;20124;-76
2020/12/05 10:27:52;;;;;;;20.30;11.10;;;5.30;99.90;;;;;;6211766;28;20034;-76
2020/12/05 10:30:53;;;;;;;16.75;10.88;;;5.40;99.90;;;;;;6208975;28;20397;-76
2020/12/05 10:33:55;;;;;;;17.02;10.52;;;5.40;99.90;;;;;;6214870;28;20133;-76
2020/12/05 10:36:57;;;;;;;26.80;14.60;;;5.60;99.90;;;;;;6214507;28;20550;-76
2020/12/05 10:39:58;;;;;;;17.98;11.43;;;5.70;99.90;;;;;;6214998;28;20495;-77
2020/12/05 10:42:59;;;;;;;18.95;13.15;;;5.70;99.90;;;;;;6211940;28;20053;-76
2020/12/05 10:46:01;;;;;;;19.27;14.07;;;5.70;99.90;;;;;;6207492;28;20050;-77
2020/12/05 10:49:03;;;;;;;22.98;15.30;;;5.80;99.90;;;;;;6212281;28;20039;-76
2020/12/05 10:52:05;;;;;;;16.83;13.38;;;6.00;99.90;;;;;;6211586;28;20042;-76
2020/12/05 10:55:06;;;;;;;14.05;10.10;;;6.00;99.90;;;;;;6209066;28;20121;-76
2020/12/05 10:58:08;;;;;;;16.90;12.30;;;6.10;99.90;;;;;;6218762;28;20050;-76
2020/12/05 11:01:09;;;;;;;16.13;12.18;;;6.00;99.90;;;;;;6209282;28;20046;-76
2020/12/05 11:04:11;;;;;;;16.83;11.68;;;6.10;99.90;;;;;;6208522;28;20684;-76
2020/12/05 11:07:12;;;;;;;13.50;10.80;;;6.00;99.90;;;;;;6215960;28;20409;-76
2020/12/05 11:10:14;;;;;;;13.80;10.52;;;6.00;99.90;;;;;;6212962;28;20145;-76
2020/12/05 11:13:15;;;;;;;14.10;10.77;;;5.90;99.90;;;;;;6211148;28;20532;-76
2020/12/05 11:16:20;;;;;;;13.60;12.20;;;5.80;99.90;;;;;;6212000;28;20053;-76
2020/12/05 11:19:22;;;;;;;18.27;12.48;;;5.80;99.90;;;;;;6211623;28;20061;-77
2020/12/05 11:22:24;;;;;;;40.85;26.88;;;5.80;99.90;;;;;;6211621;28;20132;-76
2020/12/05 11:25:25;;;;;;;23.88;20.23;;;5.90;99.90;;;;;;6218408;28;20124;-76
2020/12/05 11:28:26;;;;;;;26.60;23.02;;;6.00;99.90;;;;;;6219390;28;20184;-76
2020/12/05 11:31:28;;;;;;;14.25;12.18;;;6.10;99.90;;;;;;6207239;28;20037;-76
2020/12/05 11:34:30;;;;;;;48.78;44.60;;;6.20;99.90;;;;;;6211722;28;20563;-76
2020/12/05 11:37:31;;;;;;;18.02;12.68;;;6.20;99.90;;;;;;6211405;28;20503;-76
2020/12/05 11:40:33;;;;;;;14.65;13.10;;;6.20;99.90;;;;;;6214089;28;20173;-76
2020/12/05 11:43:34;;;;;;;12.43;9.73;;;6.20;99.90;;;;;;6210424;28;20042;-76
2020/12/05 11:46:35;;;;;;;12.43;8.93;;;6.20;99.90;;;;;;6212901;28;20053;-77
2020/12/05 11:49:37;;;;;;;9.50;8.60;;;6.30;99.90;;;;;;6216287;28;20133;-76
2020/12/05 11:52:39;;;;;;;8.98;8.10;;;6.30;99.90;;;;;;6205586;28;20054;-76
2020/12/05 11:55:40;;;;;;;8.10;7.00;;;6.30;99.90;;;;;;6210530;28;20045;-76
2020/12/05 11:58:41;;;;;;;8.48;7.63;;;6.30;99.90;;;;;;6212795;28;20166;-76
2020/12/05 12:01:43;;;;;;;9.90;9.00;;;6.30;99.90;;;;;;6210416;28;20072;-77
2020/12/05 12:04:45;;;;;;;11.80;10.60;;;6.30;99.90;;;;;;6215111;28;20050;-76
2020/12/05 12:07:46;;;;;;;11.13;9.88;;;6.30;99.90;;;;;;6210388;28;20057;-76
2020/12/05 12:10:47;;;;;;;11.63;10.35;;;6.30;99.90;;;;;;6210950;28;20062;-76
2020/12/05 12:13:49;;;;;;;11.98;10.77;;;6.20;99.90;;;;;;6214928;28;20518;-76
2020/12/05 12:16:50;;;;;;;13.95;10.85;;;6.20;99.90;;;;;;6209823;28;20046;-77
2020/12/05 12:19:52;;;;;;;10.40;9.02;;;6.10;99.90;;;;;;6213359;28;20053;-76
2020/12/05 12:22:54;;;;;;;10.73;9.07;;;6.10;99.90;;;;;;6214395;28;20046;-76
2020/12/05 12:25:55;;;;;;;9.38;7.82;;;6.00;99.90;;;;;;6216107;28;20052;-76
2020/12/05 12:28:56;;;;;;;8.40;7.60;;;6.00;99.90;;;;;;6216334;28;20417;-77
2020/12/05 12:31:58;;;;;;;10.85;8.30;;;5.80;99.90;;;;;;6217348;28;20518;-76
2020/12/05 12:35:00;;;;;;;12.98;9.80;;;5.70;99.90;;;;;;6217147;28;20052;-76
2020/12/05 12:38:01;;;;;;;9.93;8.82;;;5.70;99.90;;;;;;6214934;28;20049;-76
2020/12/05 12:41:03;;;;;;;13.32;9.93;;;5.70;99.90;;;;;;6214971;28;20052;-76
2020/12/05 12:44:04;;;;;;;12.45;11.05;;;5.70;99.90;;;;;;6211696;28;20618;-75
2020/12/05 12:47:15;;;;;;;11.88;9.68;;;5.70;99.90;;;;;;6208945;28;20053;-76
2020/12/05 12:50:17;;;;;;;11.35;9.85;;;5.80;99.90;;;;;;6214063;28;20060;-76
2020/12/05 12:53:18;;;;;;;10.52;9.25;;;5.80;99.90;;;;;;6217145;28;20038;-77
2020/12/05 12:56:21;;;;;;;8.95;8.05;;;6.00;99.90;;;;;;6213932;28;20042;-76
2020/12/05 12:59:22;;;;;;;14.27;10.40;;;6.00;99.90;;;;;;6216664;28;20049;-76
2020/12/05 13:02:23;;;;;;;10.23;8.68;;;6.10;99.90;;;;;;6211814;28;20057;-76
2020/12/05 13:05:25;;;;;;;11.93;8.85;;;6.10;99.90;;;;;;6213903;28;20069;-76
2020/12/05 13:08:27;;;;;;;8.50;7.70;;;6.10;99.90;;;;;;6216228;28;20038;-76
2020/12/05 13:11:28;;;;;;;11.50;9.55;;;6.00;99.90;;;;;;6216793;28;20038;-76
2020/12/05 13:14:29;;;;;;;13.18;10.48;;;5.90;99.70;;;;;;6215589;28;20045;-76
2020/12/05 13:17:31;;;;;;;11.40;9.38;;;5.90;99.70;;;;;;6213516;28;20093;-76
2020/12/05 13:20:33;;;;;;;17.63;12.13;;;5.80;99.60;;;;;;6217690;28;20610;-76
2020/12/05 13:23:34;;;;;;;14.77;11.75;;;5.80;99.70;;;;;;6212489;28;20138;-76
2020/12/05 13:26:35;;;;;;;18.02;12.98;;;5.80;99.80;;;;;;6212947;28;20523;-76
2020/12/05 13:29:39;;;;;;;11.75;10.55;;;5.80;99.90;;;;;;6214966;28;20054;-76
2020/12/05 13:32:40;;;;;;;12.27;10.90;;;5.90;99.70;;;;;;6210601;28;20073;-76
2020/12/05 13:35:42;;;;;;;15.30;12.38;;;5.80;99.50;;;;;;6215663;28;20504;-76
2020/12/05 13:38:44;;;;;;;13.73;11.55;;;5.80;99.40;;;;;;6212749;28;20057;-77
2020/12/05 13:41:45;;;;;;;15.07;13.52;;;5.80;99.40;;;;;;6217135;28;20056;-76
2020/12/05 13:44:46;;;;;;;16.02;13.13;;;5.80;99.70;;;;;;6218547;28;20118;-76
2020/12/05 13:47:47;;;;;;;15.30;13.70;;;5.80;99.80;;;;;;6218036;28;20046;-76
2020/12/05 13:50:50;;;;;;;18.48;13.60;;;5.90;99.70;;;;;;6212761;28;20050;-77
2020/12/05 13:53:51;;;;;;;17.98;14.35;;;5.80;99.40;;;;;;6215173;28;20076;-76
2020/12/05 13:56:52;;;;;;;16.77;14.05;;;5.80;99.30;;;;;;6212601;28;20046;-77
2020/12/05 13:59:54;;;;;;;19.70;14.68;;;5.80;99.70;;;;;;6215360;28;20124;-76
2020/12/05 14:02:55;;;;;;;20.15;15.38;;;5.80;99.60;;;;;;6211186;28;20620;-77
2020/12/05 14:05:58;;;;;;;99.40;66.95;;;5.80;99.10;;;;;;6211895;28;20125;-76
2020/12/05 14:08:59;;;;;;;19.10;17.10;;;5.70;99.10;;;;;;6212807;28;20044;-76
2020/12/05 14:12:01;;;;;;;23.33;15.48;;;5.70;99.00;;;;;;6212982;28;20526;-76
2020/12/05 14:15:03;;;;;;;20.50;15.38;;;5.60;98.90;;;;;;6213609;28;20070;-76
2020/12/05 14:18:04;;;;;;;16.98;14.55;;;5.50;98.70;;;;;;6218379;28;20112;-76
2020/12/05 14:21:06;;;;;;;19.15;15.18;;;5.50;98.90;;;;;;6215662;28;20121;-76
2020/12/05 14:24:08;;;;;;;18.50;14.77;;;5.50;99.00;;;;;;6217525;28;20124;-77
2020/12/05 14:27:09;;;;;;;17.83;15.80;;;5.50;99.10;;;;;;6190468;28;20220;-77
2020/12/05 14:30:10;;;;;;;17.98;14.50;;;5.50;99.20;;;;;;6211910;28;20037;-77
2020/12/05 14:33:16;;;;;;;20.83;15.63;;;5.50;98.90;;;;;;6212554;28;20066;-76
2020/12/05 14:36:20;;;;;;;20.20;17.40;;;5.50;98.60;;;;;;6211543;28;20042;-76
2020/12/05 14:39:21;;;;;;;17.55;15.00;;;5.40;98.50;;;;;;6295131;23;20098;-77
2020/12/05 14:42:23;;;;;;;16.70;14.82;;;5.30;98.70;;;;;;6281462;28;20052;-76
2020/12/05 14:45:24;;;;;;;20.65;12.95;;;5.30;98.60;;;;;;6272595;28;20427;-77
2020/12/05 14:48:25;;;;;;;19.02;16.13;;;5.30;98.80;;;;;;6270198;28;20053;-77
2020/12/05 14:51:28;;;;;;;16.92;14.18;;;5.30;98.80;;;;;;6271925;28;20146;-76
2020/12/05 14:54:29;;;;;;;21.58;15.15;;;5.30;98.60;;;;;;6267022;28;20506;-76
2020/12/05 14:57:30;;;;;;;19.02;16.00;;;5.20;98.60;;;;;;6247386;28;20400;-76
2020/12/05 15:00:32;;;;;;;19.40;14.70;;;5.20;98.80;;;;;;6258768;28;20498;-77
2020/12/05 15:03:33;;;;;;;19.98;14.85;;;5.20;98.90;;;;;;6220725;28;20113;-76
2020/12/05 15:06:35;;;;;;;21.20;16.08;;;5.20;99.20;;;;;;6244046;28;20600;-76
2020/12/05 15:09:36;;;;;;;21.55;16.08;;;5.20;99.40;;;;;;6263429;28;20521;-77
2020/12/05 15:12:38;;;;;;;20.98;15.57;;;5.20;99.30;;;;;;6272977;28;20525;-78
2020/12/05 15:15:39;;;;;;;19.63;15.25;;;5.20;99.20;;;;;;6270467;28;20060;-79
2020/12/05 15:18:40;;;;;;;16.08;12.70;;;5.20;99.10;;;;;;6284406;28;20040;-79
2020/12/05 15:21:43;;;;;;;16.88;13.02;;;5.20;99.10;;;;;;6281657;28;20067;-79
2020/12/05 15:24:44;;;;;;;18.75;15.10;;;5.10;99.10;;;;;;6274525;28;20073;-79
2020/12/05 15:27:45;;;;;;;16.75;14.35;;;5.10;99.10;;;;;;6277184;28;20063;-79
2020/12/05 15:30:47;;;;;;;21.75;14.68;;;5.10;99.00;;;;;;6249612;28;20046;-79
2020/12/05 15:33:48;;;;;;;18.02;13.82;;;5.10;98.70;;;;;;6267683;28;20124;-78
2020/12/05 15:36:50;;;;;;;18.42;14.85;;;5.00;98.50;;;;;;6270808;28;20044;-78
2020/12/05 15:39:52;;;;;;;17.17;13.98;;;5.00;98.50;;;;;;6270953;28;20060;-78
2020/12/05 15:42:53;;;;;;;18.30;13.75;;;5.10;98.60;;;;;;6269222;28;20098;-78
2020/12/05 15:45:55;;;;;;;27.10;22.58;;;5.00;98.70;;;;;;6270916;28;20064;-78
2020/12/05 15:48:56;;;;;;;17.73;15.20;;;5.00;98.60;;;;;;6265569;28;20104;-78
2020/12/05 15:51:59;;;;;;;18.65;15.32;;;5.00;98.60;;;;;;6267466;28;20115;-78